createdAt,value
2022-08-09T00:00:00.264Z,100.00
2022-08-09T00:02:29.019Z,100.00
2022-08-09T00:05:03.337Z,100.00
2022-08-09T00:07:45.372Z,100.00
2022-08-09T00:10:14.392Z,100.00
2022-08-09T00:12:45.778Z,100.00
2022-08-09T00:15:13.841Z,100.00
2022-08-09T00:18:05.381Z,100.00
2022-08-09T00:20:31.530Z,100.00
2022-08-09T00:23:07.796Z,100.00
2022-08-09T00:25:37.499Z,100.00
2022-08-09T00:28:06.480Z,100.00
2022-08-09T00:30:33.986Z,100.00
2022-08-09T00:33:01.447Z,100.00
2022-08-09T00:35:43.004Z,100.00
2022-08-09T00:38:12.586Z,100.00
2022-08-09T00:40:40.522Z,100.00
2022-08-09T00:44:11.923Z,100.00
2022-08-09T00:46:09.420Z,100.00
2022-08-09T00:48:38.029Z,100.00
2022-08-09T00:51:11.911Z,100.00
2022-08-09T00:53:40.635Z,100.00
2022-08-09T00:56:10.038Z,100.00
2022-08-09T00:58:37.831Z,100.00
2022-08-09T01:01:15.808Z,100.00
2022-08-09T01:03:54.923Z,100.00
2022-08-09T01:06:35.121Z,100.00
2022-08-09T01:09:26.193Z,100.00
2022-08-09T01:12:13.055Z,100.00
2022-08-09T01:14:45.940Z,100.00
2022-08-09T01:17:24.522Z,100.00
2022-08-09T01:20:02.696Z,100.00
2022-08-09T01:23:02.087Z,100.00
2022-08-09T01:25:48.978Z,100.00
2022-08-09T01:28:22.304Z,100.00
2022-08-09T01:30:53.303Z,100.00
2022-08-09T01:33:24.867Z,100.00
2022-08-09T01:36:00.507Z,100.00
2022-08-09T01:38:30.589Z,100.00
2022-08-09T01:41:05.548Z,100.00
2022-08-09T01:43:50.827Z,100.00
2022-08-09T01:46:25.152Z,100.00
2022-08-09T01:48:57.294Z,100.00
2022-08-09T01:51:32.349Z,100.00
2022-08-09T01:54:04.218Z,100.00
2022-08-09T01:56:32.688Z,100.00
2022-08-09T01:59:07.275Z,100.00
2022-08-09T02:01:57.844Z,100.00
2022-08-09T02:04:27.244Z,100.00
2022-08-09T02:07:18.323Z,100.00
2022-08-09T02:10:01.417Z,100.00
2022-08-09T02:12:34.832Z,100.00
2022-08-09T02:15:07.900Z,100.00
2022-08-09T02:18:09.862Z,100.00
2022-08-09T02:20:32.595Z,100.00
2022-08-09T02:23:05.976Z,100.00
2022-08-09T02:25:52.486Z,100.00
2022-08-09T02:28:24.383Z,100.00
2022-08-09T02:30:59.690Z,100.00
2022-08-09T02:33:37.818Z,100.00
2022-08-09T02:36:26.373Z,100.00
2022-08-09T02:38:56.266Z,100.00
2022-08-09T02:41:27.049Z,100.00
2022-08-09T02:43:59.062Z,100.00
2022-08-09T02:46:30.637Z,100.00
2022-08-09T02:49:02.560Z,100.00
2022-08-09T02:51:40.127Z,100.00
2022-08-09T02:54:10.694Z,100.00
2022-08-09T02:56:43.756Z,100.00
2022-08-09T02:59:26.557Z,100.00
2022-08-09T03:02:11.923Z,100.00
2022-08-09T03:04:40.697Z,100.00
2022-08-09T03:07:14.274Z,100.00
2022-08-09T03:09:43.727Z,100.00
2022-08-09T03:12:23.989Z,100.00
2022-08-09T03:14:52.907Z,100.00
2022-08-09T03:17:27.085Z,100.00
2022-08-09T03:20:02.974Z,100.00
2022-08-09T03:22:42.069Z,100.00
2022-08-09T03:25:25.946Z,100.00
2022-08-09T03:28:03.200Z,100.00
2022-08-09T03:30:33.912Z,100.00
2022-08-09T03:33:17.412Z,100.00
2022-08-09T03:36:14.021Z,100.00
2022-08-09T03:38:35.944Z,100.00
2022-08-09T03:41:05.075Z,100.00
2022-08-09T03:43:33.509Z,100.00
2022-08-09T03:46:20.756Z,100.00
2022-08-09T03:48:57.863Z,100.00
2022-08-09T03:51:55.622Z,100.00
2022-08-09T03:54:15.593Z,100.00
2022-08-09T03:56:44.789Z,100.00
2022-08-09T03:59:20.925Z,100.00
2022-08-09T04:01:59.323Z,100.00
2022-08-09T04:04:36.085Z,100.00
2022-08-09T04:07:06.602Z,100.00
2022-08-09T04:09:48.392Z,100.00
2022-08-09T04:12:44.503Z,100.00
2022-08-09T04:15:29.309Z,100.00
2022-08-09T04:18:00.501Z,100.00
2022-08-09T04:20:29.794Z,100.00
2022-08-09T04:23:00.379Z,100.00
2022-08-09T04:25:29.807Z,100.00
2022-08-09T04:28:02.405Z,100.00
2022-08-09T04:30:31.629Z,100.00
2022-08-09T04:33:01.739Z,100.00
2022-08-09T04:35:32.821Z,100.00
2022-08-09T04:38:03.762Z,100.00
2022-08-09T04:40:48.153Z,100.00
2022-08-09T04:43:21.746Z,100.00
2022-08-09T04:45:53.913Z,100.00
2022-08-09T04:48:21.962Z,100.00
2022-08-09T04:50:52.727Z,100.00
2022-08-09T04:53:20.178Z,100.00
2022-08-09T04:55:58.433Z,100.00
2022-08-09T04:58:27.502Z,100.00
2022-08-09T05:00:55.220Z,100.00
2022-08-09T05:03:40.946Z,100.00
2022-08-09T05:06:25.857Z,100.00
2022-08-09T05:09:00.689Z,100.00
2022-08-09T05:11:32.453Z,100.00
2022-08-09T05:14:05.820Z,100.00
2022-08-09T05:16:34.178Z,100.00
2022-08-09T05:19:25.810Z,100.00
2022-08-09T05:21:56.452Z,100.00
2022-08-09T05:24:24.422Z,100.00
2022-08-09T05:26:51.981Z,100.00
2022-08-09T05:29:22.233Z,100.00
2022-08-09T05:31:57.224Z,100.00
2022-08-09T05:34:31.100Z,100.00
2022-08-09T05:37:04.988Z,100.00
2022-08-09T05:39:36.393Z,100.00
2022-08-09T05:42:17.629Z,100.00
2022-08-09T05:44:50.766Z,100.00
2022-08-09T05:47:19.117Z,100.00
2022-08-09T05:50:24.511Z,100.00
2022-08-09T05:52:35.645Z,100.00
2022-08-09T05:55:08.811Z,100.00
2022-08-09T05:57:51.115Z,100.00
2022-08-09T06:00:25.091Z,100.00
2022-08-09T06:02:54.367Z,100.00
2022-08-09T06:05:30.915Z,100.00
2022-08-09T06:08:13.477Z,100.00
2022-08-09T06:10:46.551Z,100.00
2022-08-09T06:13:20.410Z,100.00
2022-08-09T06:15:51.562Z,100.00
2022-08-09T06:18:24.054Z,100.00
2022-08-09T06:20:54.538Z,100.00
2022-08-09T06:23:58.144Z,100.00
2022-08-09T06:26:15.318Z,100.00
2022-08-09T06:28:49.463Z,100.00
2022-08-09T06:31:16.887Z,100.00
2022-08-09T06:33:58.016Z,100.00
2022-08-09T06:36:27.273Z,100.00
2022-08-09T06:38:58.876Z,100.00
2022-08-09T06:41:55.824Z,100.00
2022-08-09T06:44:18.287Z,100.00
2022-08-09T06:46:48.133Z,100.00
2022-08-09T06:49:28.976Z,100.00
2022-08-09T06:52:05.455Z,100.00
2022-08-09T06:54:36.766Z,100.00
2022-08-09T06:57:06.630Z,100.00
2022-08-09T07:00:57.227Z,100.00
2022-08-09T07:02:29.499Z,100.00
2022-08-09T07:04:58.600Z,100.00
2022-08-09T07:08:00.910Z,100.00
2022-08-09T07:10:29.608Z,100.00
2022-08-09T07:12:59.360Z,100.00
2022-08-09T07:15:53.922Z,100.00
2022-08-09T07:18:15.140Z,100.00
2022-08-09T07:20:43.390Z,100.00
2022-08-09T07:23:18.689Z,96.80
2022-08-09T07:25:52.304Z,92.22
2022-08-09T07:28:28.981Z,89.45
2022-08-09T07:30:56.580Z,86.58
2022-08-09T07:33:24.051Z,86.97
2022-08-09T07:35:54.029Z,87.94
2022-08-09T07:38:23.481Z,92.16
2022-08-09T07:41:10.132Z,92.26
2022-08-09T07:43:49.620Z,90.43
2022-08-09T07:46:19.444Z,88.14
2022-08-09T07:48:59.083Z,85.47
2022-08-09T07:52:03.159Z,87.78
2022-08-09T07:54:15.770Z,89.45
2022-08-09T07:56:56.546Z,94.89
2022-08-09T07:59:34.735Z,92.67
2022-08-09T08:02:19.448Z,87.21
2022-08-09T08:04:48.745Z,83.18
2022-08-09T08:08:44.112Z,81.69
2022-08-09T08:10:10.482Z,82.90
2022-08-09T08:12:43.193Z,78.37
2022-08-09T08:15:13.840Z,72.47
2022-08-09T08:17:53.423Z,77.53
2022-08-09T08:20:27.309Z,73.93
2022-08-09T08:23:01.737Z,74.85
2022-08-09T08:25:44.516Z,71.79
2022-08-09T08:28:18.131Z,70.40
2022-08-09T08:30:52.934Z,68.94
2022-08-09T08:33:23.938Z,68.54
2022-08-09T08:36:00.463Z,65.99
2022-08-09T08:38:31.029Z,64.21
2022-08-09T08:40:59.140Z,61.84
2022-08-09T08:43:28.229Z,58.35
2022-08-09T08:46:03.932Z,56.21
2022-08-09T08:48:51.527Z,54.69
2022-08-09T08:51:19.964Z,55.95
2022-08-09T08:54:03.455Z,55.36
2022-08-09T08:56:34.538Z,53.27
2022-08-09T08:59:18.725Z,54.86
2022-08-09T09:01:53.290Z,54.82
2022-08-09T09:04:29.662Z,53.28
2022-08-09T09:07:02.082Z,52.87
2022-08-09T09:09:50.273Z,52.96
2022-08-09T09:12:22.055Z,52.09
2022-08-09T09:14:52.160Z,50.48
2022-08-09T09:17:21.057Z,51.34
2022-08-09T09:19:48.604Z,49.29
2022-08-09T09:22:17.553Z,50.26
2022-08-09T09:26:00.456Z,47.94
2022-08-09T09:28:04.985Z,48.85
2022-08-09T09:30:41.043Z,45.88
2022-08-09T09:33:15.625Z,45.75
2022-08-09T09:36:01.771Z,43.97
2022-08-09T09:38:45.421Z,44.33
2022-08-09T09:41:27.705Z,45.19
2022-08-09T09:44:12.573Z,46.12
2022-08-09T09:46:45.911Z,45.79
2022-08-09T09:49:32.109Z,46.97
2022-08-09T09:52:16.305Z,45.69
2022-08-09T09:55:02.944Z,46.48
2022-08-09T09:58:02.605Z,45.44
2022-08-09T10:00:34.414Z,43.71
2022-08-09T10:03:09.195Z,42.81
2022-08-09T10:06:04.032Z,44.61
2022-08-09T10:08:32.434Z,44.59
2022-08-09T10:12:00.742Z,45.43
2022-08-09T10:14:07.063Z,48.52
2022-08-09T10:16:58.003Z,47.06
2022-08-09T10:19:35.800Z,46.31
2022-08-09T10:22:03.619Z,44.70
2022-08-09T10:24:35.862Z,44.90
2022-08-09T10:27:05.389Z,46.00
2022-08-09T10:30:29.981Z,47.14
2022-08-09T10:32:40.159Z,44.54
2022-08-09T10:35:13.218Z,45.59
2022-08-09T10:37:42.103Z,47.36
2022-08-09T10:40:33.451Z,45.02
2022-08-09T10:43:00.095Z,45.07
2022-08-09T10:45:31.799Z,43.58
2022-08-09T10:48:19.357Z,45.63
2022-08-09T10:51:09.254Z,43.30
2022-08-09T10:53:54.610Z,43.96
2022-08-09T10:56:24.304Z,43.96
2022-08-09T10:58:54.293Z,43.97
2022-08-09T11:03:15.188Z,41.72
2022-08-09T11:04:29.846Z,42.13
2022-08-09T11:07:57.587Z,42.03
2022-08-09T11:10:30.128Z,42.24
2022-08-09T11:13:51.294Z,42.69
2022-08-09T11:16:33.474Z,40.44
2022-08-09T11:19:03.181Z,40.42
2022-08-09T11:21:57.246Z,41.17
2022-08-09T11:25:05.640Z,40.34
2022-08-09T11:28:08.039Z,41.06
2022-08-09T11:30:37.616Z,40.76
2022-08-09T11:33:11.730Z,42.36
2022-08-09T11:35:49.671Z,40.84
2022-08-09T11:38:22.349Z,41.73
2022-08-09T11:40:57.844Z,42.31
2022-08-09T11:43:41.258Z,43.69
2022-08-09T11:46:09.455Z,45.52
2022-08-09T11:48:48.709Z,42.55
2022-08-09T11:51:38.027Z,42.53
2022-08-09T11:54:27.686Z,41.14
2022-08-09T11:57:48.043Z,40.45
2022-08-09T12:00:27.426Z,41.23
2022-08-09T12:02:56.660Z,41.08
2022-08-09T12:05:37.608Z,39.55
2022-08-09T12:08:12.236Z,39.74
2022-08-09T12:10:48.526Z,38.97
2022-08-09T12:14:09.720Z,36.83
2022-08-09T12:16:37.633Z,37.07
2022-08-09T12:19:08.541Z,37.07
2022-08-09T12:21:39.303Z,36.86
2022-08-09T12:24:22.195Z,35.58
2022-08-09T12:28:58.262Z,36.13
2022-08-09T12:29:44.497Z,35.98
2022-08-09T12:32:27.389Z,36.84
2022-08-09T12:35:02.648Z,37.12
2022-08-09T12:37:49.754Z,36.71
2022-08-09T12:40:19.151Z,38.78
2022-08-09T12:42:50.454Z,39.42
2022-08-09T12:45:33.199Z,39.17
2022-08-09T12:48:10.782Z,39.74
2022-08-09T12:50:48.628Z,39.34
2022-08-09T12:53:36.720Z,39.50
2022-08-09T12:56:15.995Z,38.86
2022-08-09T12:59:10.528Z,39.42
2022-08-09T13:01:48.842Z,39.21
2022-08-09T13:04:36.085Z,38.24
2022-08-09T13:07:14.340Z,39.00
2022-08-09T13:09:52.890Z,38.34
2022-08-09T13:12:23.780Z,37.33
2022-08-09T13:14:54.031Z,37.50
2022-08-09T13:18:03.229Z,34.97
2022-08-09T13:20:17.443Z,34.75
2022-08-09T13:23:01.543Z,35.82
2022-08-09T13:25:42.009Z,35.89
2022-08-09T13:28:11.638Z,36.15
2022-08-09T13:32:14.482Z,37.34
2022-08-09T13:33:53.141Z,37.49
2022-08-09T13:36:39.394Z,37.68
2022-08-09T13:41:20.918Z,36.87
2022-08-09T13:42:01.982Z,36.21
2022-08-09T13:44:30.158Z,37.33
2022-08-09T13:47:17.834Z,37.48
2022-08-09T13:49:57.463Z,36.93
2022-08-09T13:52:26.038Z,37.36
2022-08-09T13:55:00.139Z,37.15
2022-08-09T13:57:36.555Z,37.30
2022-08-09T14:00:13.696Z,37.37
2022-08-09T14:03:02.991Z,36.83
2022-08-09T14:05:59.035Z,37.52
2022-08-09T14:08:19.339Z,36.76
2022-08-09T14:10:52.689Z,36.68
2022-08-09T14:14:16.221Z,38.56
2022-08-09T14:16:12.419Z,37.17
2022-08-09T14:18:45.187Z,38.62
2022-08-09T14:21:17.796Z,36.58
2022-08-09T14:23:54.018Z,37.24
2022-08-09T14:26:30.178Z,37.44
2022-08-09T14:29:00.332Z,37.25
2022-08-09T14:31:35.919Z,37.55
2022-08-09T14:34:17.612Z,38.36
2022-08-09T14:36:56.618Z,39.83
2022-08-09T14:39:40.407Z,39.80
2022-08-09T14:42:11.416Z,39.04
2022-08-09T14:44:48.942Z,38.86
2022-08-09T14:47:44.950Z,38.77
2022-08-09T14:50:16.226Z,39.41
2022-08-09T14:52:47.787Z,40.33
2022-08-09T14:55:20.290Z,39.61
2022-08-09T14:57:48.952Z,38.64
2022-08-09T15:00:17.147Z,38.62
2022-08-09T15:02:47.188Z,38.87
2022-08-09T15:05:16.038Z,38.31
2022-08-09T15:07:56.306Z,39.45
2022-08-09T15:10:26.246Z,38.05
2022-08-09T15:12:53.873Z,38.14
2022-08-09T15:15:21.694Z,37.85
2022-08-09T15:17:52.390Z,38.03
2022-08-09T15:21:56.591Z,38.23
2022-08-09T15:24:01.003Z,38.46
2022-08-09T15:25:58.544Z,37.62
2022-08-09T15:28:28.434Z,36.86
2022-08-09T15:31:09.843Z,37.05
2022-08-09T15:34:18.116Z,37.14
2022-08-09T15:36:29.341Z,37.42
2022-08-09T15:38:59.894Z,38.13
2022-08-09T15:41:31.919Z,38.44
2022-08-09T15:43:59.973Z,37.94
2022-08-09T15:46:34.432Z,37.71
2022-08-09T15:49:20.867Z,37.51
2022-08-09T15:52:02.857Z,38.94
2022-08-09T15:54:46.273Z,38.25
2022-08-09T15:57:19.043Z,38.18
2022-08-09T16:00:01.322Z,38.28
2022-08-09T16:02:28.694Z,38.95
2022-08-09T16:04:56.460Z,39.17
2022-08-09T16:07:25.711Z,39.21
2022-08-09T16:10:04.280Z,39.05
2022-08-09T16:12:32.954Z,39.10
2022-08-09T16:15:01.180Z,38.65
2022-08-09T16:17:29.139Z,39.03
2022-08-09T16:20:05.002Z,38.74
2022-08-09T16:22:37.140Z,38.73
2022-08-09T16:25:13.896Z,39.16
2022-08-09T16:27:43.214Z,40.30
2022-08-09T16:30:15.517Z,38.69
2022-08-09T16:33:12.208Z,38.68
2022-08-09T16:35:57.142Z,38.90
2022-08-09T16:38:29.586Z,41.15
2022-08-09T16:40:58.528Z,44.02
2022-08-09T16:43:31.552Z,40.20
2022-08-09T16:45:59.130Z,41.24
2022-08-09T16:48:40.063Z,41.05
2022-08-09T16:51:17.409Z,41.74
2022-08-09T16:56:36.378Z,42.24
2022-08-09T16:59:06.819Z,41.85
2022-08-09T17:01:38.806Z,41.79
2022-08-09T17:04:06.838Z,42.21
2022-08-09T17:07:07.360Z,42.16
2022-08-09T17:09:45.763Z,42.51
2022-08-09T17:12:10.875Z,44.35
2022-08-09T17:14:38.269Z,49.71
2022-08-09T17:17:25.973Z,52.12
2022-08-09T17:20:30.431Z,51.23
2022-08-09T17:22:51.672Z,47.60
2022-08-09T17:25:22.286Z,48.18
2022-08-09T17:27:54.542Z,53.90
2022-08-09T17:30:25.871Z,61.61
2022-08-09T17:32:54.232Z,64.07
2022-08-09T17:35:21.643Z,69.88
2022-08-09T17:38:11.770Z,71.28
2022-08-09T17:40:39.339Z,77.49
2022-08-09T17:43:32.560Z,70.70
2022-08-09T17:46:03.039Z,58.28
2022-08-09T17:48:34.408Z,53.57
2022-08-09T17:51:09.705Z,60.78
2022-08-09T17:53:52.077Z,71.85
2022-08-09T17:56:21.297Z,71.86
2022-08-09T17:58:50.030Z,74.20
2022-08-09T18:01:22.590Z,78.00
2022-08-09T18:03:51.043Z,77.04
2022-08-09T18:06:31.021Z,79.04
2022-08-09T18:09:01.979Z,88.98
2022-08-09T18:11:32.166Z,85.43
2022-08-09T18:14:21.395Z,75.43
2022-08-09T18:16:49.710Z,85.12
2022-08-09T18:20:56.591Z,61.30
2022-08-09T18:22:06.072Z,65.76
2022-08-09T18:24:41.051Z,65.07
2022-08-09T18:27:10.100Z,56.64
2022-08-09T18:30:38.746Z,54.06
2022-08-09T18:32:30.248Z,52.67
2022-08-09T18:34:57.724Z,52.80
2022-08-09T18:37:49.098Z,52.35
2022-08-09T18:40:12.702Z,52.12
2022-08-09T18:42:40.113Z,53.12
2022-08-09T18:45:21.618Z,55.21
2022-08-09T18:48:00.425Z,55.85
2022-08-09T18:50:33.682Z,71.59
2022-08-09T18:53:01.452Z,64.61
2022-08-09T18:55:56.586Z,76.69
2022-08-09T18:58:31.821Z,98.94
2022-08-09T19:01:01.141Z,100.00
2022-08-09T19:03:28.913Z,100.00
2022-08-09T19:06:03.408Z,100.00
2022-08-09T19:08:32.322Z,100.00
2022-08-09T19:10:59.770Z,100.00
2022-08-09T19:13:37.984Z,100.00
2022-08-09T19:16:20.849Z,100.00
2022-08-09T19:18:48.689Z,100.00
2022-08-09T19:21:18.891Z,100.00
2022-08-09T19:24:33.078Z,100.00
2022-08-09T19:26:37.578Z,100.00
2022-08-09T19:29:15.138Z,100.00
2022-08-09T19:31:49.693Z,100.00
2022-08-09T19:34:22.624Z,100.00
2022-08-09T19:36:52.879Z,100.00
2022-08-09T19:39:43.060Z,100.00
2022-08-09T19:42:09.170Z,100.00
2022-08-09T19:44:43.144Z,100.00
2022-08-09T19:47:11.880Z,100.00
2022-08-09T19:50:10.077Z,100.00
2022-08-09T19:52:28.607Z,100.00
2022-08-09T19:54:56.085Z,100.00
2022-08-09T19:57:26.428Z,100.00
2022-08-09T19:59:59.319Z,100.00
2022-08-09T20:04:10.933Z,100.00
2022-08-09T20:05:23.635Z,100.00
2022-08-09T20:07:59.813Z,100.00
2022-08-09T20:10:34.294Z,100.00
2022-08-09T20:13:04.719Z,100.00
2022-08-09T20:16:37.682Z,100.00
2022-08-09T20:18:22.777Z,100.00
2022-08-09T20:20:56.363Z,100.00
2022-08-09T20:23:25.535Z,100.00
2022-08-09T20:26:07.247Z,100.00
2022-08-09T20:28:47.577Z,100.00
2022-08-09T20:31:16.550Z,100.00
2022-08-09T20:33:45.820Z,100.00
2022-08-09T20:36:14.189Z,100.00
2022-08-09T20:39:28.581Z,100.00
2022-08-09T20:41:35.474Z,100.00
2022-08-09T20:44:10.075Z,100.00
2022-08-09T20:46:43.374Z,100.00
2022-08-09T20:49:15.730Z,100.00
2022-08-09T20:51:44.019Z,100.00
2022-08-09T20:54:16.418Z,100.00
2022-08-09T20:56:46.780Z,100.00
2022-08-09T20:59:17.261Z,100.00
2022-08-09T21:01:50.870Z,100.00
2022-08-09T21:05:53.626Z,100.00
2022-08-09T21:07:11.414Z,100.00
2022-08-09T21:09:45.176Z,100.00
2022-08-09T21:14:48.393Z,100.00
2022-08-09T21:18:23.296Z,100.00
2022-08-09T21:20:22.165Z,100.00
2022-08-09T21:22:54.851Z,100.00
2022-08-09T21:25:44.334Z,100.00
2022-08-09T21:28:35.094Z,100.00
2022-08-09T21:31:13.565Z,100.00
2022-08-09T21:33:45.942Z,100.00
2022-08-09T21:36:25.912Z,100.00
2022-08-09T21:38:57.459Z,100.00
2022-08-09T21:42:03.690Z,100.00
2022-08-09T21:44:15.387Z,100.00
2022-08-09T21:47:01.923Z,100.00
2022-08-09T21:49:29.385Z,100.00
2022-08-09T21:52:15.100Z,100.00
2022-08-09T21:54:46.381Z,100.00
2022-08-09T21:57:37.314Z,100.00
2022-08-09T22:00:09.517Z,100.00
2022-08-09T22:02:38.020Z,100.00
2022-08-09T22:05:17.150Z,100.00
2022-08-09T22:07:53.103Z,100.00
2022-08-09T22:10:23.171Z,100.00
2022-08-09T22:12:52.353Z,100.00
2022-08-09T22:15:33.259Z,100.00
2022-08-09T22:18:02.453Z,100.00
2022-08-09T22:20:31.347Z,100.00
2022-08-09T22:23:00.419Z,100.00
2022-08-09T22:26:05.558Z,100.00
2022-08-09T22:28:21.033Z,100.00
2022-08-09T22:30:59.710Z,100.00
2022-08-09T22:33:37.641Z,100.00
2022-08-09T22:36:14.445Z,100.00
2022-08-09T22:38:48.658Z,100.00
2022-08-09T22:41:16.291Z,100.00
2022-08-09T22:44:01.472Z,100.00
2022-08-09T22:48:17.817Z,100.00
2022-08-09T22:49:17.810Z,100.00
2022-08-09T22:51:56.509Z,100.00
2022-08-09T22:54:27.500Z,100.00
2022-08-09T22:56:57.056Z,100.00
2022-08-09T22:59:56.857Z,100.00
2022-08-09T23:02:15.632Z,100.00
2022-08-09T23:04:53.854Z,100.00
2022-08-09T23:08:23.173Z,100.00
2022-08-09T23:10:29.193Z,100.00
2022-08-09T23:12:56.727Z,100.00
2022-08-09T23:15:24.176Z,100.00
2022-08-09T23:17:51.588Z,100.00
2022-08-09T23:20:19.130Z,100.00
2022-08-09T23:22:46.550Z,100.00
2022-08-09T23:25:14.215Z,100.00
2022-08-09T23:27:59.677Z,100.00
2022-08-09T23:30:31.094Z,100.00
2022-08-09T23:32:58.460Z,100.00
2022-08-09T23:35:25.928Z,100.00
2022-08-09T23:37:53.336Z,100.00
2022-08-09T23:40:20.894Z,100.00
2022-08-09T23:42:49.674Z,100.00
2022-08-09T23:45:37.060Z,100.00
2022-08-09T23:48:08.943Z,100.00
2022-08-09T23:50:36.719Z,100.00
2022-08-09T23:53:04.478Z,100.00
2022-08-09T23:55:33.028Z,100.00
2022-08-09T23:58:10.382Z,100.00
